Time;durP1;ratioP1;P1;durP2;ratioP2;P2;SDS_P1;SDS_P2;PMS_P1;PMS_P2;Temp;Humidity;BMP_temperature;BMP_pressure;BME280_temperature;BME280_humidity;BME280_pressure;Samples;Min_cycle;Max_cycle;Signal;HPM_P1;HPM_P2
2023/01/19 00:00:26;;;;;;;19.85;12.82;;;3.20;99.90;;;;;;5054457;28;20571;-82
2023/01/19 00:02:53;;;;;;;15.27;11.45;;;3.20;99.90;;;;;;5053434;28;20262;-82
2023/01/19 00:05:19;;;;;;;14.02;11.35;;;3.20;99.90;;;;;;5054418;28;20179;-82
2023/01/19 00:07:45;;;;;;;16.63;11.10;;;3.10;99.90;;;;;;5054512;28;20199;-82
2023/01/19 00:10:11;;;;;;;17.88;11.40;;;3.20;99.90;;;;;;5053281;28;20210;-82
2023/01/19 00:12:36;;;;;;;17.33;11.48;;;3.20;99.90;;;;;;5054376;28;20528;-82
2023/01/19 00:15:02;;;;;;;15.40;11.27;;;3.10;99.90;;;;;;5052632;28;20195;-82
2023/01/19 00:17:28;;;;;;;15.45;11.90;;;3.20;99.90;;;;;;5052895;28;20611;-82
2023/01/19 00:19:53;;;;;;;21.38;12.05;;;3.30;99.90;;;;;;5054047;28;20686;-81
2023/01/19 00:22:19;;;;;;;12.00;9.95;;;3.30;99.90;;;;;;5052754;28;20194;-81
2023/01/19 00:24:45;;;;;;;16.02;10.55;;;3.30;99.90;;;;;;5053920;28;20191;-80
2023/01/19 00:27:10;;;;;;;17.83;10.52;;;3.40;99.90;;;;;;5053883;28;20174;-80
2023/01/19 00:29:36;;;;;;;21.48;11.43;;;3.60;99.90;;;;;;5052522;28;20167;-80
2023/01/19 00:32:03;;;;;;;14.98;10.57;;;3.60;99.90;;;;;;5052597;28;20174;-80
2023/01/19 00:34:35;;;;;;;17.45;10.23;;;3.70;99.90;;;;;;5052164;28;20187;-80
2023/01/19 00:37:08;;;;;;;12.07;9.55;;;3.90;99.90;;;;;;5052364;28;20620;-81
2023/01/19 00:39:33;;;;;;;13.65;9.45;;;3.80;99.90;;;;;;5051956;28;20218;-80
2023/01/19 00:44:43;;;;;;;13.50;10.20;;;3.60;99.90;;;;;;5053415;28;20202;-81
2023/01/19 00:47:09;;;;;;;17.10;9.68;;;3.50;99.90;;;;;;5052238;28;20159;-81
2023/01/19 00:49:34;;;;;;;16.98;10.70;;;3.30;99.90;;;;;;5053472;28;20163;-80
2023/01/19 00:52:00;;;;;;;13.05;9.95;;;3.30;99.90;;;;;;5053162;28;20632;-81
2023/01/19 00:54:25;;;;;;;12.93;9.30;;;3.10;99.90;;;;;;5051757;28;20183;-81
2023/01/19 00:56:51;;;;;;;17.67;10.35;;;3.00;99.90;;;;;;5051704;28;20174;-81
2023/01/19 00:59:17;;;;;;;18.65;10.15;;;3.10;99.90;;;;;;5053514;28;20206;-81
2023/01/19 01:01:42;;;;;;;14.07;9.88;;;3.00;99.90;;;;;;5051963;28;20217;-81
2023/01/19 01:04:08;;;;;;;19.85;11.07;;;3.00;99.90;;;;;;5052986;28;20691;-81
2023/01/19 01:06:33;;;;;;;16.15;10.45;;;2.80;99.90;;;;;;5051635;28;20217;-81
2023/01/19 01:08:59;;;;;;;18.88;10.68;;;2.80;99.90;;;;;;5051727;28;20257;-81
2023/01/19 01:11:24;;;;;;;21.38;10.55;;;2.80;99.90;;;;;;5052658;28;20174;-81
2023/01/19 01:13:50;;;;;;;15.15;11.13;;;2.90;99.90;;;;;;5052354;28;20210;-81
2023/01/19 01:16:16;;;;;;;15.57;11.57;;;2.90;99.90;;;;;;5052676;28;20233;-80
2023/01/19 01:18:43;;;;;;;24.63;11.82;;;2.80;99.90;;;;;;5051167;28;20206;-80
2023/01/19 01:21:11;;;;;;;17.60;11.43;;;2.80;99.90;;;;;;5051234;28;20262;-81
2023/01/19 01:23:40;;;;;;;15.13;10.98;;;2.80;99.90;;;;;;5052307;28;20159;-81
2023/01/19 01:26:05;;;;;;;15.90;10.40;;;2.70;99.90;;;;;;5051076;28;20234;-81
2023/01/19 01:28:32;;;;;;;13.82;10.43;;;2.80;99.90;;;;;;5051371;28;20212;-80
2023/01/19 01:30:57;;;;;;;20.15;10.38;;;2.70;99.90;;;;;;5051265;28;20174;-81
2023/01/19 01:33:23;;;;;;;17.75;11.18;;;2.80;99.90;;;;;;5052481;28;20163;-81
2023/01/19 01:35:49;;;;;;;18.83;11.90;;;2.70;99.90;;;;;;5052216;28;20182;-80
2023/01/19 01:38:15;;;;;;;17.70;9.95;;;2.70;99.90;;;;;;5051262;28;20280;-80
2023/01/19 01:40:41;;;;;;;18.45;10.57;;;2.70;99.90;;;;;;5052083;28;20164;-80
2023/01/19 01:43:17;;;;;;;11.82;9.55;;;2.60;99.90;;;;;;5050562;28;20258;-80
2023/01/19 01:45:43;;;;;;;19.80;11.15;;;2.60;99.90;;;;;;5051962;28;20555;-81
2023/01/19 01:48:11;;;;;;;18.63;10.70;;;2.60;99.90;;;;;;5050868;28;20175;-80
2023/01/19 01:51:22;;;;;;;17.92;10.25;;;2.60;99.90;;;;;;5052526;28;20163;-80
2023/01/19 01:53:32;;;;;;;17.48;10.73;;;2.60;99.90;;;;;;5051726;28;20535;-80
2023/01/19 01:56:01;;;;;;;14.50;10.27;;;2.60;99.90;;;;;;5050581;28;20223;-80
2023/01/19 01:58:27;;;;;;;19.70;10.75;;;2.70;99.90;;;;;;5052105;28;20206;-80
2023/01/19 02:03:40;;;;;;;17.23;11.23;;;2.60;99.90;;;;;;5052136;28;20237;-80
2023/01/19 02:14:46;;;;;;;14.57;9.73;;;2.50;99.90;;;;;;5029548;28;20207;-80
2023/01/19 02:17:12;;;;;;;20.40;10.65;;;2.50;99.90;;;;;;5029842;28;20172;-80
2023/01/19 02:19:41;;;;;;;16.20;11.00;;;2.40;99.90;;;;;;5016104;28;20314;-81
2023/01/19 02:22:23;;;;;;;18.48;10.60;;;2.40;99.90;;;;;;5052169;28;20194;-81
2023/01/19 02:24:49;;;;;;;15.60;10.02;;;2.40;99.90;;;;;;5050816;28;20679;-81
2023/01/19 02:27:15;;;;;;;23.30;10.70;;;2.50;99.90;;;;;;5054579;28;20229;-81
2023/01/19 02:29:41;;;;;;;14.60;10.23;;;2.50;99.90;;;;;;5055063;28;20163;-82
2023/01/19 02:32:07;;;;;;;14.57;9.75;;;2.70;99.90;;;;;;5056367;28;20171;-82
2023/01/19 02:34:33;;;;;;;12.10;9.98;;;2.90;99.90;;;;;;5055897;28;20547;-82
2023/01/19 02:37:05;;;;;;;16.65;10.25;;;2.80;99.90;;;;;;5055373;28;20238;-81
2023/01/19 02:40:00;;;;;;;27.23;12.07;;;2.90;99.90;;;;;;5054696;28;20222;-82
2023/01/19 02:42:28;;;;;;;14.80;11.18;;;3.00;99.90;;;;;;5054612;28;20164;-81
2023/01/19 02:44:55;;;;;;;15.65;10.30;;;3.10;99.90;;;;;;5055865;28;20215;-82
2023/01/19 02:47:21;;;;;;;18.67;10.90;;;3.10;99.90;;;;;;5054307;28;20261;-82
2023/01/19 02:49:58;;;;;;;18.45;10.18;;;2.80;99.90;;;;;;5055632;28;20160;-81
2023/01/19 02:52:25;;;;;;;20.65;10.13;;;2.90;99.90;;;;;;5055691;28;20576;-81
2023/01/19 02:55:05;;;;;;;19.67;10.48;;;2.90;99.90;;;;;;5055613;28;20688;-81
2023/01/19 02:58:00;;;;;;;24.65;11.35;;;2.90;99.90;;;;;;5055360;28;20174;-82
2023/01/19 03:00:54;;;;;;;16.83;10.43;;;2.90;99.90;;;;;;5055410;28;20211;-81
2023/01/19 03:03:48;;;;;;;21.20;10.02;;;3.10;99.90;;;;;;5055383;28;20636;-81
2023/01/19 03:06:30;;;;;;;16.70;10.70;;;2.90;99.90;;;;;;5053621;28;20249;-83
2023/01/19 03:09:10;;;;;;;15.82;9.73;;;3.00;99.90;;;;;;5055293;28;20228;-83
2023/01/19 03:11:40;;;;;;;25.67;11.10;;;3.00;99.90;;;;;;5053965;28;20181;-82
2023/01/19 03:14:11;;;;;;;14.80;10.27;;;3.00;99.90;;;;;;5053873;28;20168;-82
2023/01/19 03:16:41;;;;;;;15.52;9.63;;;3.00;99.90;;;;;;5055420;28;20667;-82
2023/01/19 03:19:21;;;;;;;17.92;10.43;;;3.00;99.90;;;;;;5053935;28;20601;-82
2023/01/19 03:21:53;;;;;;;21.02;10.85;;;2.90;99.90;;;;;;5053829;28;20183;-82
2023/01/19 03:24:22;;;;;;;28.63;10.68;;;2.80;99.90;;;;;;5053790;28;20221;-81
2023/01/19 03:26:56;;;;;;;22.80;9.75;;;3.00;99.90;;;;;;5053774;28;20178;-82
2023/01/19 03:29:26;;;;;;;14.85;8.88;;;3.00;99.90;;;;;;5055247;28;20193;-82
2023/01/19 03:31:54;;;;;;;17.20;9.18;;;3.00;99.90;;;;;;5053744;28;20179;-82
2023/01/19 03:34:22;;;;;;;15.88;7.93;;;3.00;99.90;;;;;;5054836;28;20170;-82
2023/01/19 03:36:52;;;;;;;15.02;10.20;;;3.30;99.90;;;;;;5054339;28;20167;-81
2023/01/19 03:39:22;;;;;;;15.60;9.18;;;3.50;99.90;;;;;;5054344;28;20206;-80
2023/01/19 03:41:51;;;;;;;12.30;8.93;;;3.80;99.90;;;;;;5053453;28;20163;-82
2023/01/19 03:44:17;;;;;;;21.63;9.07;;;3.70;99.90;;;;;;5054867;28;20186;-82
2023/01/19 03:46:46;;;;;;;10.82;8.95;;;3.50;99.90;;;;;;5054852;28;20651;-81
2023/01/19 03:49:12;;;;;;;11.15;7.93;;;3.60;99.90;;;;;;5053418;28;20527;-82
2023/01/19 03:51:39;;;;;;;13.75;8.55;;;3.90;99.90;;;;;;5053078;28;20254;-82
2023/01/19 03:54:06;;;;;;;15.27;9.80;;;4.00;99.90;;;;;;5053373;28;20181;-81
2023/01/19 03:56:31;;;;;;;16.55;9.52;;;4.10;99.90;;;;;;5053405;28;20175;-82
2023/01/19 03:58:57;;;;;;;15.45;8.80;;;4.10;99.90;;;;;;5054478;28;20265;-81
2023/01/19 04:01:23;;;;;;;15.38;10.05;;;4.10;99.90;;;;;;5054456;28;20171;-81
2023/01/19 04:03:50;;;;;;;12.93;9.30;;;3.80;99.90;;;;;;5054339;28;20167;-82
2023/01/19 04:06:16;;;;;;;13.70;10.07;;;3.70;99.90;;;;;;5054095;28;20186;-83
2023/01/19 04:08:42;;;;;;;14.32;9.10;;;3.70;99.90;;;;;;5054172;28;20167;-81
2023/01/19 04:11:09;;;;;;;18.33;10.35;;;3.70;99.90;;;;;;5054261;28;20171;-82
2023/01/19 04:13:34;;;;;;;12.10;10.00;;;3.40;99.90;;;;;;5054274;28;20167;-82
2023/01/19 04:16:01;;;;;;;14.63;9.32;;;3.30;99.90;;;;;;5053558;28;20556;-82
2023/01/19 04:18:28;;;;;;;21.00;10.27;;;3.20;99.90;;;;;;5053921;28;20203;-81
2023/01/19 04:20:54;;;;;;;15.90;9.52;;;3.00;99.90;;;;;;5052847;28;20179;-82
2023/01/19 04:23:20;;;;;;;13.93;10.13;;;2.90;99.90;;;;;;5053929;28;20174;-82
2023/01/19 04:25:46;;;;;;;12.60;9.32;;;2.90;99.90;;;;;;5053964;28;20194;-83
2023/01/19 04:28:11;;;;;;;20.05;10.70;;;3.00;99.90;;;;;;5054151;28;20167;-81
2023/01/19 04:30:37;;;;;;;14.70;10.55;;;3.00;99.90;;;;;;5052575;28;20174;-81
2023/01/19 04:33:08;;;;;;;20.50;10.88;;;3.20;99.90;;;;;;5052597;28;20170;-81
2023/01/19 04:35:34;;;;;;;29.67;11.00;;;3.20;99.90;;;;;;5053589;28;20222;-82
2023/01/19 04:38:00;;;;;;;19.90;11.48;;;3.30;99.90;;;;;;5052243;28;20573;-82
2023/01/19 04:40:25;;;;;;;19.60;11.15;;;3.20;99.90;;;;;;5052578;28;20273;-82
2023/01/19 04:42:51;;;;;;;16.98;9.68;;;3.40;99.90;;;;;;5053610;28;20254;-82
2023/01/19 04:45:17;;;;;;;20.00;11.05;;;3.40;99.90;;;;;;5053220;28;20184;-82
2023/01/19 04:47:43;;;;;;;14.45;10.55;;;3.60;99.90;;;;;;5053265;28;20208;-81
2023/01/19 04:50:09;;;;;;;24.83;12.68;;;3.60;99.90;;;;;;5051767;28;20171;-81
2023/01/19 04:52:35;;;;;;;21.08;10.65;;;3.40;99.90;;;;;;5053456;28;20173;-81
2023/01/19 04:55:03;;;;;;;28.15;11.88;;;3.40;99.90;;;;;;5052129;28;20298;-81
2023/01/19 04:57:29;;;;;;;25.08;12.15;;;3.50;99.90;;;;;;5053459;28;20686;-81
2023/01/19 04:59:56;;;;;;;24.50;12.75;;;3.30;99.90;;;;;;5053001;28;20242;-81
2023/01/19 05:02:22;;;;;;;21.40;13.07;;;3.20;99.90;;;;;;5051445;28;20178;-82
2023/01/19 05:04:48;;;;;;;21.23;12.75;;;3.30;99.90;;;;;;5052959;28;20195;-81
2023/01/19 05:07:13;;;;;;;28.42;13.48;;;3.20;99.90;;;;;;5052933;28;20250;-81
2023/01/19 05:09:39;;;;;;;31.05;15.40;;;3.00;99.90;;;;;;5053181;28;20175;-82
2023/01/19 05:12:04;;;;;;;25.08;13.82;;;3.10;99.90;;;;;;5052919;28;20224;-82
2023/01/19 05:14:30;;;;;;;24.23;14.65;;;3.00;99.90;;;;;;5067412;22;20246;-77
2023/01/19 05:16:56;;;;;;;30.45;15.02;;;2.90;99.90;;;;;;5052653;28;20646;-78
2023/01/19 05:19:22;;;;;;;28.05;14.60;;;2.90;99.90;;;;;;5052710;28;20427;-78
2023/01/19 05:21:48;;;;;;;32.72;15.13;;;2.70;99.90;;;;;;5052819;28;20174;-78
2023/01/19 05:24:14;;;;;;;31.80;14.70;;;2.80;99.90;;;;;;5052907;28;20559;-79
2023/01/19 05:26:40;;;;;;;28.48;15.43;;;2.80;99.90;;;;;;5052863;28;20598;-78
2023/01/19 05:29:06;;;;;;;28.60;14.60;;;2.90;99.90;;;;;;5052931;28;20269;-78
2023/01/19 05:31:31;;;;;;;32.13;15.20;;;2.80;99.90;;;;;;5052886;28;20262;-78
2023/01/19 05:33:57;;;;;;;32.15;15.50;;;2.90;99.90;;;;;;5052742;28;20171;-78
2023/01/19 05:36:22;;;;;;;32.15;15.48;;;2.80;99.90;;;;;;5052346;28;20214;-79
2023/01/19 05:38:48;;;;;;;38.38;14.63;;;2.60;99.90;;;;;;5052442;28;20693;-78
2023/01/19 05:41:16;;;;;;;40.75;15.05;;;2.70;99.90;;;;;;5052457;28;20175;-78
2023/01/19 05:43:42;;;;;;;28.73;15.75;;;2.70;99.90;;;;;;5052391;28;20258;-78
2023/01/19 05:46:08;;;;;;;29.67;14.75;;;2.80;99.90;;;;;;5052516;28;20257;-79
2023/01/19 05:48:36;;;;;;;36.03;13.75;;;2.70;99.90;;;;;;5052010;28;20234;-78
2023/01/19 05:51:05;;;;;;;29.42;14.52;;;2.60;99.90;;;;;;5052472;28;20171;-78
2023/01/19 05:53:33;;;;;;;36.88;14.65;;;2.60;99.90;;;;;;5052165;28;20166;-78
2023/01/19 05:56:04;;;;;;;25.08;13.68;;;2.60;99.90;;;;;;5052145;28;20187;-78
2023/01/19 05:58:30;;;;;;;32.75;13.75;;;2.50;99.90;;;;;;5052327;28;20203;-78
2023/01/19 06:01:00;;;;;;;25.00;14.10;;;2.50;99.90;;;;;;5051433;28;20250;-78
2023/01/19 06:03:25;;;;;;;24.80;13.88;;;2.50;99.90;;;;;;5052077;28;20171;-79
2023/01/19 06:05:51;;;;;;;30.63;16.42;;;2.50;99.90;;;;;;5051632;28;20195;-78
2023/01/19 06:08:17;;;;;;;25.23;13.60;;;2.40;99.90;;;;;;5051926;28;20176;-78
2023/01/19 06:10:42;;;;;;;27.45;14.85;;;2.40;99.90;;;;;;5051245;28;20630;-78
2023/01/19 06:13:11;;;;;;;33.17;14.85;;;2.40;99.90;;;;;;5052288;28;20171;-78
2023/01/19 06:15:37;;;;;;;34.70;15.27;;;2.40;99.90;;;;;;5050278;28;20250;-78
2023/01/19 06:18:02;;;;;;;35.60;14.77;;;2.30;99.90;;;;;;5052095;28;20636;-77
2023/01/19 06:20:30;;;;;;;37.15;16.25;;;2.30;99.90;;;;;;5052286;28;20243;-78
2023/01/19 06:22:56;;;;;;;28.88;14.30;;;2.30;99.90;;;;;;5051831;28;20644;-78
2023/01/19 06:25:25;;;;;;;32.42;14.70;;;2.30;99.90;;;;;;5051522;28;20293;-78
2023/01/19 06:27:51;;;;;;;29.63;16.08;;;2.30;99.90;;;;;;5051818;28;20259;-79
2023/01/19 06:30:17;;;;;;;29.75;14.30;;;2.30;99.90;;;;;;5051661;28;20167;-79
2023/01/19 06:32:42;;;;;;;24.77;14.63;;;2.30;99.90;;;;;;5051719;28;20178;-78
2023/01/19 06:35:08;;;;;;;26.08;13.95;;;2.30;99.90;;;;;;5051822;28;20555;-77
2023/01/19 06:37:34;;;;;;;34.90;15.05;;;2.40;99.90;;;;;;5051696;28;20543;-78
2023/01/19 06:40:00;;;;;;;24.83;15.20;;;2.50;99.90;;;;;;5051553;28;20207;-79
2023/01/19 06:42:26;;;;;;;24.75;14.23;;;2.70;99.90;;;;;;5051622;28;20193;-78
2023/01/19 06:44:51;;;;;;;38.47;15.88;;;2.80;99.90;;;;;;5051120;28;20202;-78
2023/01/19 06:47:17;;;;;;;30.45;14.48;;;2.90;99.90;;;;;;5051211;28;20221;-79
2023/01/19 06:49:43;;;;;;;30.88;15.23;;;2.90;99.90;;;;;;5051735;28;20203;-78
2023/01/19 06:52:10;;;;;;;36.47;15.02;;;2.90;99.90;;;;;;5051217;28;20167;-78
2023/01/19 06:54:36;;;;;;;31.75;14.43;;;3.00;99.90;;;;;;5051328;28;20209;-78
2023/01/19 06:57:02;;;;;;;34.42;15.40;;;3.00;99.90;;;;;;5051257;28;20171;-78
2023/01/19 06:59:28;;;;;;;36.58;14.57;;;3.10;99.90;;;;;;5051270;28;20222;-78
2023/01/19 07:01:55;;;;;;;40.40;15.52;;;3.00;99.90;;;;;;5051354;28;20168;-79
2023/01/19 07:04:21;;;;;;;27.90;14.05;;;3.00;99.90;;;;;;5050036;28;20186;-78
2023/01/19 07:06:46;;;;;;;34.10;15.02;;;3.10;99.90;;;;;;5051592;28;20584;-76
2023/01/19 07:09:12;;;;;;;24.98;13.90;;;3.10;99.90;;;;;;5051257;28;20203;-78
2023/01/19 07:11:38;;;;;;;33.08;14.13;;;3.10;99.90;;;;;;5051851;28;20163;-78
2023/01/19 07:14:04;;;;;;;23.55;14.18;;;3.10;99.90;;;;;;5054718;28;20236;-78
2023/01/19 07:16:30;;;;;;;28.38;14.73;;;2.90;99.90;;;;;;5054518;28;20534;-78
2023/01/19 07:18:55;;;;;;;30.90;15.80;;;3.00;99.90;;;;;;5054693;28;20229;-78
2023/01/19 07:21:22;;;;;;;32.78;15.02;;;3.10;99.90;;;;;;5054679;28;20198;-78
2023/01/19 07:23:51;;;;;;;23.30;13.68;;;2.90;99.90;;;;;;5054839;28;20209;-79
2023/01/19 07:26:20;;;;;;;28.45;14.43;;;2.80;99.90;;;;;;5054485;28;20183;-78
2023/01/19 07:28:46;;;;;;;36.97;15.40;;;2.80;99.90;;;;;;5054702;28;20199;-78
2023/01/19 07:31:12;;;;;;;27.60;15.50;;;2.80;99.90;;;;;;5055285;28;20175;-78
2023/01/19 07:33:38;;;;;;;31.83;13.90;;;2.80;99.90;;;;;;5054658;28;20199;-78
2023/01/19 07:36:03;;;;;;;30.92;14.63;;;2.90;99.90;;;;;;5053411;28;20229;-78
2023/01/19 07:38:29;;;;;;;33.30;14.43;;;3.00;99.90;;;;;;5053059;28;20660;-78
2023/01/19 07:41:02;;;;;;;27.25;14.15;;;2.80;99.90;;;;;;5053925;28;20497;-78
2023/01/19 07:43:28;;;;;;;39.53;15.60;;;2.70;99.90;;;;;;5054086;28;20193;-78
2023/01/19 07:46:01;;;;;;;30.80;14.68;;;2.80;99.90;;;;;;5053795;28;20199;-79
2023/01/19 07:48:27;;;;;;;35.10;14.65;;;2.80;99.90;;;;;;5054093;28;20179;-79
2023/01/19 07:50:58;;;;;;;29.48;13.80;;;2.70;99.90;;;;;;5054284;28;20171;-79
2023/01/19 07:53:23;;;;;;;22.38;13.20;;;2.70;99.90;;;;;;5053779;28;20175;-78
2023/01/19 07:55:55;;;;;;;32.03;16.23;;;2.70;99.90;;;;;;5053900;28;20721;-79
2023/01/19 07:58:21;;;;;;;37.40;14.45;;;2.60;99.90;;;;;;5053888;28;20298;-78
2023/01/19 08:00:47;;;;;;;41.65;15.32;;;2.60;99.90;;;;;;5053893;28;20168;-79
2023/01/19 08:03:12;;;;;;;32.35;14.98;;;2.60;99.90;;;;;;5053621;28;20171;-79
2023/01/19 08:05:38;;;;;;;31.27;15.50;;;2.80;99.90;;;;;;5053733;28;20183;-78
2023/01/19 08:08:04;;;;;;;28.13;15.35;;;2.90;99.90;;;;;;5053561;28;20167;-79
2023/01/19 08:10:30;;;;;;;34.55;15.90;;;2.90;99.90;;;;;;5053677;28;20203;-79
2023/01/19 08:12:56;;;;;;;29.52;15.40;;;2.90;99.90;;;;;;5053560;28;20631;-79
2023/01/19 08:15:23;;;;;;;35.58;17.25;;;3.00;99.90;;;;;;5053762;28;20197;-78
2023/01/19 08:18:00;;;;;;;29.17;14.68;;;3.10;99.90;;;;;;5053620;28;20209;-79
2023/01/19 08:20:27;;;;;;;25.75;14.13;;;3.30;99.90;;;;;;5053922;28;20185;-79
2023/01/19 08:22:59;;;;;;;32.00;16.77;;;3.10;99.90;;;;;;5053749;28;20175;-76
2023/01/19 08:25:44;;;;;;;34.30;15.80;;;3.20;99.90;;;;;;5053744;28;20218;-77
2023/01/19 08:28:11;;;;;;;42.17;15.32;;;3.30;99.90;;;;;;5053891;28;20163;-77
2023/01/19 08:30:37;;;;;;;45.10;17.23;;;3.10;99.90;;;;;;5053395;28;20167;-79
2023/01/19 08:33:04;;;;;;;42.85;15.90;;;3.10;99.90;;;;;;5051785;28;20171;-76
2023/01/19 08:35:30;;;;;;;42.60;19.65;;;3.10;99.90;;;;;;5051971;28;20179;-78
2023/01/19 08:37:59;;;;;;;31.33;15.70;;;3.30;99.90;;;;;;5053297;28;20628;-76
2023/01/19 08:40:29;;;;;;;31.45;15.00;;;3.30;99.90;;;;;;5052078;28;20593;-79
2023/01/19 08:43:03;;;;;;;32.22;15.48;;;3.30;99.90;;;;;;5046465;28;20179;-81
2023/01/19 08:45:32;;;;;;;33.53;16.13;;;3.40;99.90;;;;;;5051953;28;20614;-78
2023/01/19 08:47:58;;;;;;;34.97;14.98;;;3.30;99.90;;;;;;5052196;28;20179;-78
2023/01/19 08:50:33;;;;;;;33.72;15.60;;;3.30;99.90;;;;;;5051549;28;20171;-78
2023/01/19 08:53:00;;;;;;;37.20;15.43;;;3.20;99.90;;;;;;5052505;28;20206;-77
2023/01/19 08:55:27;;;;;;;34.50;16.00;;;3.20;99.90;;;;;;5052312;28;20179;-77
2023/01/19 08:57:56;;;;;;;29.08;14.23;;;3.30;99.90;;;;;;5052421;28;20183;-77
2023/01/19 09:00:23;;;;;;;28.05;14.77;;;3.40;99.90;;;;;;5052701;28;20175;-77
2023/01/19 09:02:50;;;;;;;36.53;15.25;;;3.60;99.90;;;;;;5051588;28;20688;-78
2023/01/19 09:05:16;;;;;;;33.42;16.02;;;3.50;99.90;;;;;;5052505;28;20201;-77
2023/01/19 09:07:44;;;;;;;35.50;16.23;;;3.60;99.90;;;;;;5061775;28;20171;-77
2023/01/19 09:10:10;;;;;;;29.35;14.25;;;3.80;99.90;;;;;;5072917;28;20166;-77
2023/01/19 09:12:36;;;;;;;30.98;15.35;;;3.70;99.90;;;;;;5064385;28;20217;-79
2023/01/19 09:15:01;;;;;;;32.28;14.52;;;3.90;99.90;;;;;;5052216;28;20198;-82
2023/01/19 09:17:27;;;;;;;31.98;14.85;;;4.00;99.90;;;;;;5052541;28;20627;-78
2023/01/19 09:19:52;;;;;;;30.67;13.85;;;3.80;99.90;;;;;;5042187;28;20300;-78
2023/01/19 09:22:18;;;;;;;35.03;15.02;;;4.00;99.90;;;;;;5047923;28;20175;-78
2023/01/19 09:24:43;;;;;;;42.13;16.10;;;4.00;99.90;;;;;;5051158;28;20613;-80
2023/01/19 09:27:09;;;;;;;34.47;15.30;;;4.00;99.90;;;;;;5052272;28;20171;-78
2023/01/19 09:29:35;;;;;;;36.22;13.05;;;4.10;99.90;;;;;;5052139;28;20163;-78
2023/01/19 09:32:01;;;;;;;30.90;13.85;;;4.10;99.90;;;;;;5051401;28;20640;-78
2023/01/19 09:34:26;;;;;;;35.10;15.73;;;4.00;99.90;;;;;;5050725;28;20231;-79
2023/01/19 09:36:52;;;;;;;33.22;14.27;;;4.00;99.90;;;;;;5051468;28;20210;-79
2023/01/19 09:39:18;;;;;;;36.45;14.02;;;4.00;99.90;;;;;;5052475;28;20221;-83
2023/01/19 09:41:59;;;;;;;32.42;14.10;;;4.10;99.90;;;;;;5052094;28;20163;-78
2023/01/19 09:44:33;;;;;;;28.60;11.82;;;4.30;99.90;;;;;;5032336;28;20178;-78
2023/01/19 09:47:01;;;;;;;36.25;12.40;;;4.30;99.90;;;;;;5032735;28;20231;-79
2023/01/19 09:49:33;;;;;;;33.75;13.60;;;4.20;99.90;;;;;;5050580;28;20179;-78
2023/01/19 09:51:59;;;;;;;33.53;14.57;;;4.20;99.90;;;;;;5050884;28;20167;-78
2023/01/19 09:54:32;;;;;;;28.00;12.20;;;4.30;99.90;;;;;;5052015;28;20170;-78
2023/01/19 09:56:58;;;;;;;26.90;11.93;;;4.30;99.90;;;;;;5051421;28;20198;-78
2023/01/19 09:59:27;;;;;;;32.22;12.45;;;4.00;99.90;;;;;;5050910;28;20391;-78
2023/01/19 10:02:17;;;;;;;33.67;13.02;;;4.00;99.90;;;;;;5052029;28;20204;-77
2023/01/19 10:04:59;;;;;;;32.67;12.85;;;4.20;99.90;;;;;;5051993;28;20659;-78
2023/01/19 10:07:36;;;;;;;28.92;12.65;;;4.30;99.90;;;;;;5048657;28;20666;-83
2023/01/19 10:10:16;;;;;;;28.58;12.55;;;4.20;99.90;;;;;;5051417;28;20182;-79
2023/01/19 10:13:00;;;;;;;31.67;13.45;;;4.10;99.90;;;;;;5051381;28;20259;-79
2023/01/19 10:15:44;;;;;;;25.48;13.73;;;3.90;99.90;;;;;;5050630;28;20800;-79
2023/01/19 10:18:46;;;;;;;33.20;13.30;;;3.80;99.90;;;;;;5051578;28;20206;-80
2023/01/19 10:21:26;;;;;;;35.28;13.25;;;3.90;99.90;;;;;;5008364;28;20183;-80
2023/01/19 10:24:24;;;;;;;31.90;13.35;;;3.90;99.90;;;;;;5051486;28;20206;-79
2023/01/19 10:26:52;;;;;;;26.50;12.65;;;4.00;99.90;;;;;;5018030;28;20183;-79
2023/01/19 10:29:34;;;;;;;31.80;12.65;;;4.20;99.90;;;;;;5051426;28;20234;-79
2023/01/19 10:32:22;;;;;;;31.73;11.77;;;4.10;99.90;;;;;;5051591;28;20167;-79
2023/01/19 10:34:49;;;;;;;30.17;11.73;;;4.10;99.90;;;;;;5051796;28;20724;-78
2023/01/19 10:37:28;;;;;;;35.65;11.32;;;4.10;99.90;;;;;;5051210;28;20229;-76
2023/01/19 10:40:09;;;;;;;31.40;12.82;;;4.10;99.90;;;;;;5051446;28;20206;-78
2023/01/19 10:42:36;;;;;;;29.55;13.55;;;4.20;99.90;;;;;;5051167;28;20171;-84
2023/01/19 10:45:03;;;;;;;30.85;13.15;;;4.30;99.90;;;;;;5049922;28;20276;-78
2023/01/19 10:47:39;;;;;;;32.38;12.38;;;4.20;99.90;;;;;;5052631;28;20167;-78
2023/01/19 10:50:27;;;;;;;26.13;12.20;;;3.90;99.90;;;;;;5056013;28;20163;-78
2023/01/19 10:52:58;;;;;;;21.08;10.63;;;3.80;99.90;;;;;;5055528;28;20186;-82
2023/01/19 10:55:28;;;;;;;23.30;11.63;;;3.90;99.90;;;;;;5055267;28;20675;-81
2023/01/19 10:57:54;;;;;;;27.88;12.52;;;3.90;99.90;;;;;;5053976;28;20178;-79
2023/01/19 11:00:29;;;;;;;31.55;12.18;;;4.00;99.90;;;;;;5055158;28;20203;-81
2023/01/19 11:02:55;;;;;;;24.10;12.13;;;3.80;99.90;;;;;;5055052;28;20173;-79
2023/01/19 11:05:28;;;;;;;22.35;11.75;;;4.00;99.90;;;;;;5055100;28;20179;-79
2023/01/19 11:07:55;;;;;;;40.92;14.32;;;4.00;99.90;;;;;;5055256;28;20213;-79
2023/01/19 11:10:21;;;;;;;26.20;13.65;;;4.10;99.90;;;;;;5055115;28;20175;-78
2023/01/19 11:13:00;;;;;;;28.65;12.48;;;4.40;99.90;;;;;;5054867;28;20163;-80
2023/01/19 11:15:52;;;;;;;21.85;11.73;;;4.50;99.90;;;;;;5054678;28;20195;-79
2023/01/19 11:18:39;;;;;;;26.95;12.15;;;4.30;99.90;;;;;;5054838;28;20636;-78
2023/01/19 11:21:16;;;;;;;28.60;12.23;;;4.10;99.90;;;;;;5054672;28;20639;-79
2023/01/19 11:23:50;;;;;;;29.08;11.65;;;4.10;99.90;;;;;;5054642;28;20174;-77
2023/01/19 11:26:27;;;;;;;36.63;11.63;;;4.10;99.90;;;;;;5054430;28;20198;-79
2023/01/19 11:28:54;;;;;;;25.52;11.40;;;4.00;99.90;;;;;;5054641;28;20182;-79
2023/01/19 11:31:26;;;;;;;26.60;10.57;;;4.10;99.90;;;;;;5054661;28;20159;-79
2023/01/19 11:33:57;;;;;;;31.88;12.10;;;4.30;99.90;;;;;;5054714;28;20175;-78
2023/01/19 11:36:26;;;;;;;33.30;13.05;;;4.10;99.90;;;;;;5054760;28;20187;-79
2023/01/19 11:38:57;;;;;;;22.40;12.65;;;4.00;99.90;;;;;;5054659;28;20202;-79
2023/01/19 11:41:29;;;;;;;29.30;12.48;;;4.20;99.90;;;;;;5054543;28;20177;-79
2023/01/19 11:44:22;;;;;;;30.60;13.88;;;4.40;99.90;;;;;;5054329;28;20163;-78
2023/01/19 11:47:02;;;;;;;30.15;14.15;;;4.70;99.90;;;;;;5043844;28;20202;-79
2023/01/19 11:50:11;;;;;;;29.83;13.27;;;5.00;99.90;;;;;;5054737;28;20711;-78
2023/01/19 11:52:45;;;;;;;25.90;12.40;;;4.90;99.90;;;;;;4992588;28;20266;-79
2023/01/19 11:55:27;;;;;;;27.98;12.38;;;4.90;99.90;;;;;;5048452;28;20225;-81
2023/01/19 11:57:53;;;;;;;24.95;12.63;;;5.00;99.90;;;;;;5053816;28;20166;-78
2023/01/19 12:00:34;;;;;;;27.23;12.63;;;5.10;99.90;;;;;;5053952;28;20690;-78
2023/01/19 12:03:15;;;;;;;25.13;13.23;;;5.10;99.90;;;;;;5052889;28;20270;-88
2023/01/19 12:05:46;;;;;;;27.05;11.80;;;5.00;99.90;;;;;;5053903;28;20236;-79
2023/01/19 12:08:34;;;;;;;20.42;11.95;;;4.80;99.90;;;;;;5053644;28;20159;-80
2023/01/19 12:11:01;;;;;;;18.23;11.32;;;4.70;99.90;;;;;;5053779;28;20196;-77
2023/01/19 12:13:29;;;;;;;23.63;11.40;;;4.90;99.90;;;;;;5053906;28;20214;-78
2023/01/19 12:16:05;;;;;;;27.48;12.80;;;4.80;99.90;;;;;;5053540;28;20610;-79
2023/01/19 12:18:38;;;;;;;30.83;13.23;;;4.80;99.90;;;;;;5051962;28;20198;-78
2023/01/19 12:21:04;;;;;;;31.85;12.68;;;4.90;99.90;;;;;;5052598;28;20527;-77
2023/01/19 12:23:54;;;;;;;22.58;12.20;;;4.70;99.90;;;;;;5053712;28;20530;-78
2023/01/19 12:26:35;;;;;;;24.08;11.45;;;4.60;99.90;;;;;;5052446;28;20244;-78
2023/01/19 12:29:16;;;;;;;32.13;12.35;;;4.60;99.90;;;;;;5053662;28;20175;-79
2023/01/19 12:31:42;;;;;;;22.63;12.52;;;4.50;99.90;;;;;;5053361;28;20163;-78
2023/01/19 12:34:38;;;;;;;24.83;12.27;;;4.50;99.90;;;;;;5052663;28;20174;-84
2023/01/19 12:37:06;;;;;;;24.08;11.55;;;4.30;99.90;;;;;;5053527;28;20170;-78
2023/01/19 12:39:33;;;;;;;23.65;12.52;;;4.40;99.90;;;;;;5047550;28;20254;-84
2023/01/19 12:42:12;;;;;;;27.33;12.88;;;4.60;99.90;;;;;;5051105;28;20185;-79
2023/01/19 12:44:38;;;;;;;25.88;12.20;;;4.70;99.90;;;;;;5052413;28;20230;-79
2023/01/19 12:47:09;;;;;;;21.20;12.60;;;4.80;99.90;;;;;;5051798;28;20202;-78
2023/01/19 12:49:44;;;;;;;27.30;12.95;;;4.70;99.90;;;;;;5052629;28;20175;-78
2023/01/19 12:52:18;;;;;;;33.75;14.48;;;4.80;99.90;;;;;;5053011;28;20193;-78
2023/01/19 12:54:55;;;;;;;29.88;11.30;;;4.90;99.90;;;;;;5053407;28;20195;-78
2023/01/19 12:57:47;;;;;;;26.50;11.68;;;4.90;99.90;;;;;;5053351;28;20175;-78
2023/01/19 13:00:22;;;;;;;30.05;13.90;;;4.70;99.90;;;;;;5053063;28;20579;-78
2023/01/19 13:02:55;;;;;;;16.00;10.70;;;4.80;99.90;;;;;;5051874;28;20174;-78
2023/01/19 13:05:29;;;;;;;21.35;11.43;;;4.50;99.90;;;;;;5053326;28;20249;-78